createdAt,value
2022-12-20T00:01:24.274Z,42.57
2022-12-20T00:03:52.754Z,43.57
2022-12-20T00:06:19.976Z,44.93
2022-12-20T00:08:47.029Z,42.60
2022-12-20T00:11:14.311Z,46.50
2022-12-20T00:13:41.314Z,43.50
2022-12-20T00:16:14.416Z,43.50
2022-12-20T00:18:42.324Z,42.90
2022-12-20T00:21:11.943Z,42.30
2022-12-20T00:23:39.696Z,45.97
2022-12-20T00:26:09.622Z,46.47
2022-12-20T00:28:37.493Z,46.73
2022-12-20T00:31:06.029Z,43.23
2022-12-20T00:33:33.846Z,44.40
2022-12-20T00:36:00.738Z,41.63
2022-12-20T00:38:27.883Z,39.70
2022-12-20T00:41:01.104Z,47.20
2022-12-20T00:43:28.958Z,44.00
2022-12-20T00:45:55.881Z,45.10
2022-12-20T00:48:23.225Z,46.60
2022-12-20T00:50:50.147Z,43.37
2022-12-20T00:53:21.146Z,40.60
2022-12-20T00:55:51.576Z,38.57
2022-12-20T00:58:18.400Z,44.30
2022-12-20T01:00:48.928Z,43.37
2022-12-20T01:03:20.631Z,40.60
2022-12-20T01:05:56.761Z,46.67
2022-12-20T01:08:24.512Z,45.00
2022-12-20T01:11:08.061Z,42.40
2022-12-20T01:13:38.199Z,42.77
2022-12-20T01:16:10.188Z,42.83
2022-12-20T01:18:37.060Z,45.53
2022-12-20T01:21:06.548Z,44.30
2022-12-20T01:23:33.382Z,40.53
2022-12-20T01:26:01.425Z,37.87
2022-12-20T01:28:28.820Z,42.20
2022-12-20T01:30:55.820Z,45.30
2022-12-20T01:33:23.152Z,45.40
2022-12-20T01:35:58.406Z,43.30
2022-12-20T01:38:25.353Z,47.00
2022-12-20T01:40:52.893Z,41.73
2022-12-20T01:43:20.783Z,41.37
2022-12-20T01:45:47.961Z,47.03
2022-12-20T01:48:22.679Z,43.83
2022-12-20T01:50:50.865Z,45.10
2022-12-20T01:53:19.659Z,44.13
2022-12-20T01:55:47.881Z,42.87
2022-12-20T01:58:16.355Z,49.30
2022-12-20T02:00:43.425Z,47.23
2022-12-20T02:03:12.986Z,44.70
2022-12-20T02:05:45.390Z,48.87
2022-12-20T02:08:14.719Z,47.47
2022-12-20T02:10:59.785Z,44.43
2022-12-20T02:13:57.520Z,44.50
2022-12-20T02:16:31.665Z,46.03
2022-12-20T02:19:31.542Z,43.63
2022-12-20T02:22:30.244Z,47.63
2022-12-20T02:25:15.470Z,44.97
2022-12-20T02:28:08.305Z,45.80
2022-12-20T02:30:41.815Z,43.67
2022-12-20T02:33:13.217Z,45.93
2022-12-20T02:35:41.423Z,46.53
2022-12-20T02:38:27.021Z,41.83
2022-12-20T02:40:59.045Z,43.70
2022-12-20T02:43:48.348Z,41.20
2022-12-20T02:46:16.905Z,40.67
2022-12-20T02:48:45.161Z,40.53
2022-12-20T02:51:12.691Z,47.63
2022-12-20T02:53:42.761Z,38.97
2022-12-20T02:56:14.037Z,42.90
2022-12-20T02:58:46.952Z,41.43
2022-12-20T03:01:23.545Z,45.67
2022-12-20T03:03:52.513Z,44.77
2022-12-20T03:06:19.334Z,45.43
2022-12-20T03:08:46.695Z,45.40
2022-12-20T03:11:14.266Z,41.97
2022-12-20T03:13:43.710Z,43.93
2022-12-20T03:16:10.996Z,42.03
2022-12-20T03:18:38.336Z,41.37
2022-12-20T03:21:05.248Z,39.80
2022-12-20T03:23:32.632Z,43.57
2022-12-20T03:25:59.578Z,40.07
2022-12-20T03:28:28.465Z,37.80
2022-12-20T03:30:55.255Z,40.07
2022-12-20T03:33:22.159Z,39.47
2022-12-20T03:35:49.223Z,42.80
2022-12-20T03:38:16.024Z,40.40
2022-12-20T03:40:42.770Z,40.00
2022-12-20T03:43:09.521Z,41.30
2022-12-20T03:45:36.301Z,39.43
2022-12-20T03:48:03.173Z,43.63
2022-12-20T03:50:31.431Z,41.97
2022-12-20T03:52:58.269Z,43.67
2022-12-20T03:55:25.075Z,41.23
2022-12-20T03:57:51.839Z,43.30
2022-12-20T04:00:18.989Z,40.73
2022-12-20T04:02:46.237Z,43.07
2022-12-20T04:05:13.221Z,37.97
2022-12-20T04:07:40.428Z,40.73
2022-12-20T04:10:07.877Z,40.67
2022-12-20T04:12:34.713Z,37.43
2022-12-20T04:15:01.555Z,38.07
2022-12-20T04:17:28.402Z,36.83
2022-12-20T04:19:55.184Z,41.50
2022-12-20T04:22:22.021Z,44.10
2022-12-20T04:24:49.155Z,40.67
2022-12-20T04:27:15.961Z,41.03
2022-12-20T04:29:42.765Z,38.90
2022-12-20T04:32:09.565Z,38.57
2022-12-20T04:34:36.376Z,43.33
2022-12-20T04:37:04.360Z,39.23
2022-12-20T04:39:31.168Z,38.20
2022-12-20T04:41:58.488Z,39.50
2022-12-20T04:44:25.266Z,34.47
2022-12-20T04:46:52.689Z,37.23
2022-12-20T04:49:19.617Z,37.03
2022-12-20T04:51:46.424Z,39.67
2022-12-20T04:54:13.304Z,36.80
2022-12-20T04:56:40.207Z,39.07
2022-12-20T04:59:07.093Z,40.30
2022-12-20T05:01:34.203Z,35.07
2022-12-20T05:04:01.149Z,36.63
2022-12-20T05:06:28.128Z,40.40
2022-12-20T05:08:55.299Z,38.00
2022-12-20T05:11:22.133Z,37.33
2022-12-20T05:13:48.925Z,39.97
2022-12-20T05:16:15.736Z,36.50
2022-12-20T05:18:48.435Z,32.00
2022-12-20T05:21:34.665Z,36.90
2022-12-20T05:24:20.061Z,35.83
2022-12-20T05:26:46.909Z,37.50
2022-12-20T05:29:13.717Z,37.97
2022-12-20T05:31:40.542Z,40.17
2022-12-20T05:34:07.396Z,34.37
2022-12-20T05:36:34.209Z,34.37
2022-12-20T05:39:04.368Z,37.27
2022-12-20T05:41:31.658Z,34.67
2022-12-20T05:43:58.922Z,33.80
2022-12-20T05:46:25.829Z,33.43
2022-12-20T05:48:52.713Z,34.90
2022-12-20T05:51:19.523Z,34.50
2022-12-20T05:53:46.309Z,34.13
2022-12-20T05:56:13.134Z,32.83
2022-12-20T05:58:40.429Z,32.20
2022-12-20T06:01:09.322Z,35.57
2022-12-20T06:03:36.824Z,33.00
2022-12-20T06:06:10.243Z,34.17
2022-12-20T06:08:40.581Z,32.73
2022-12-20T06:11:07.546Z,30.73
2022-12-20T06:13:34.387Z,32.00
2022-12-20T06:16:01.336Z,31.93
2022-12-20T06:18:28.502Z,31.30
2022-12-20T06:20:55.658Z,29.07
2022-12-20T06:23:22.459Z,28.90
2022-12-20T06:25:49.684Z,28.67
2022-12-20T06:28:21.722Z,29.07
2022-12-20T06:30:56.313Z,29.33
2022-12-20T06:33:23.310Z,26.70
2022-12-20T06:35:52.422Z,32.30
2022-12-20T06:38:19.300Z,28.57
2022-12-20T06:40:46.231Z,30.57
2022-12-20T06:43:13.016Z,29.80
2022-12-20T06:45:42.053Z,29.90
2022-12-20T06:48:10.012Z,30.37
2022-12-20T06:50:40.489Z,30.13
2022-12-20T06:53:07.471Z,29.63
2022-12-20T06:55:34.350Z,28.63
2022-12-20T06:58:01.445Z,31.10
2022-12-20T07:00:28.242Z,30.10
2022-12-20T07:02:55.163Z,27.73
2022-12-20T07:05:22.139Z,28.47
2022-12-20T07:07:49.063Z,29.77
2022-12-20T07:10:16.193Z,30.53
2022-12-20T07:12:47.776Z,27.53
2022-12-20T07:15:15.987Z,25.10
2022-12-20T07:17:42.879Z,31.03
2022-12-20T07:20:13.594Z,28.47
2022-12-20T07:22:41.456Z,28.80
2022-12-20T07:25:08.983Z,31.57
2022-12-20T07:27:35.915Z,26.07
2022-12-20T07:30:05.114Z,26.63
2022-12-20T07:32:32.198Z,28.83
2022-12-20T07:34:59.357Z,28.37
2022-12-20T07:37:28.262Z,30.10
2022-12-20T07:39:55.115Z,28.07
2022-12-20T07:42:21.924Z,27.23
2022-12-20T07:44:48.817Z,27.23
2022-12-20T07:47:16.117Z,25.83
2022-12-20T07:49:42.916Z,26.20
2022-12-20T07:52:12.959Z,25.07
2022-12-20T07:55:02.596Z,23.10
2022-12-20T07:57:44.657Z,26.37
2022-12-20T08:00:12.880Z,27.27
2022-12-20T08:02:52.111Z,26.60
2022-12-20T08:05:19.151Z,26.40
2022-12-20T08:07:51.105Z,27.33
2022-12-20T08:10:22.383Z,26.47
2022-12-20T08:12:50.716Z,27.37
2022-12-20T08:15:22.217Z,26.00
2022-12-20T08:17:49.801Z,25.83
2022-12-20T08:20:16.865Z,26.90
2022-12-20T08:22:43.740Z,27.87
2022-12-20T08:25:11.925Z,29.77
2022-12-20T08:27:39.350Z,26.67
2022-12-20T08:30:08.728Z,28.43
2022-12-20T08:32:36.407Z,29.23
2022-12-20T08:35:04.405Z,27.80
2022-12-20T08:37:31.247Z,25.73
2022-12-20T08:39:58.139Z,26.20
2022-12-20T08:42:25.094Z,26.17
2022-12-20T08:44:51.950Z,24.77
2022-12-20T08:47:18.809Z,27.93
2022-12-20T08:49:47.800Z,27.70
2022-12-20T08:52:15.258Z,27.23
2022-12-20T08:54:42.212Z,27.97
2022-12-20T08:57:12.589Z,26.27
2022-12-20T08:59:46.030Z,29.87
2022-12-20T09:02:17.917Z,28.57
2022-12-20T09:04:52.241Z,28.33
2022-12-20T09:07:22.074Z,32.00
2022-12-20T09:09:49.063Z,27.93
2022-12-20T09:12:15.917Z,27.17
2022-12-20T09:14:45.883Z,28.33
2022-12-20T09:17:18.504Z,28.37
2022-12-20T09:19:48.564Z,28.87
2022-12-20T09:22:18.641Z,28.13
2022-12-20T09:24:54.821Z,29.07
2022-12-20T09:27:22.519Z,27.97
2022-12-20T09:29:49.332Z,27.33
2022-12-20T09:32:19.116Z,29.73
2022-12-20T09:34:49.068Z,28.90
2022-12-20T09:37:15.933Z,29.03
2022-12-20T09:39:45.932Z,29.13
2022-12-20T09:42:15.190Z,32.43
2022-12-20T09:44:42.839Z,27.47
2022-12-20T09:47:18.433Z,31.00
2022-12-20T09:49:51.970Z,28.90
2022-12-20T09:52:57.885Z,30.63
2022-12-20T09:55:45.783Z,30.77
2022-12-20T09:58:32.586Z,31.43
2022-12-20T10:01:15.421Z,28.37
2022-12-20T10:03:45.939Z,31.57
2022-12-20T10:06:54.403Z,31.07
2022-12-20T10:09:39.262Z,29.30
2022-12-20T10:12:29.908Z,28.50
2022-12-20T10:14:56.823Z,31.40
2022-12-20T10:17:41.663Z,31.77
2022-12-20T10:20:11.341Z,30.33
2022-12-20T10:22:46.562Z,30.33
2022-12-20T10:25:25.055Z,32.60
2022-12-20T10:27:57.001Z,33.50
2022-12-20T10:30:28.683Z,31.27
2022-12-20T10:32:57.997Z,34.87
2022-12-20T10:35:31.422Z,34.70
2022-12-20T10:38:09.560Z,34.20
2022-12-20T10:43:44.507Z,32.73
2022-12-20T10:46:13.360Z,31.90
2022-12-20T10:48:46.338Z,30.67
2022-12-20T10:51:20.669Z,33.27
2022-12-20T10:54:20.252Z,34.90
2022-12-20T10:56:56.757Z,34.87
2022-12-20T10:59:34.848Z,30.67
2022-12-20T11:02:20.315Z,35.00
2022-12-20T11:05:00.036Z,32.97
2022-12-20T11:07:33.019Z,32.23
2022-12-20T11:10:21.023Z,31.03
2022-12-20T11:12:59.849Z,31.60
2022-12-20T11:15:35.155Z,36.20
2022-12-20T11:18:20.583Z,32.87
2022-12-20T11:20:58.625Z,34.33
2022-12-20T11:23:37.313Z,34.47
2022-12-20T11:26:15.996Z,31.77
2022-12-20T11:28:55.708Z,32.53
2022-12-20T11:31:48.857Z,31.57
2022-12-20T11:34:34.373Z,29.90
2022-12-20T11:37:26.235Z,32.00
2022-12-20T11:40:30.602Z,34.23
2022-12-20T11:43:12.475Z,34.43
2022-12-20T11:45:45.168Z,31.40
2022-12-20T11:48:34.908Z,33.23
2022-12-20T11:51:17.356Z,31.53
2022-12-20T11:54:09.486Z,30.90
2022-12-20T11:56:44.250Z,33.37
2022-12-20T11:59:24.693Z,33.40
2022-12-20T12:02:03.483Z,31.87
2022-12-20T12:04:34.599Z,33.77
2022-12-20T12:07:16.998Z,34.77
2022-12-20T12:10:13.049Z,34.17
2022-12-20T12:12:48.532Z,31.80
2022-12-20T12:15:16.858Z,31.60
2022-12-20T12:18:07.634Z,33.57
2022-12-20T12:21:17.856Z,36.10
2022-12-20T12:23:44.625Z,32.03
2022-12-20T12:26:22.701Z,33.07
2022-12-20T12:28:55.132Z,32.20
2022-12-20T12:31:40.003Z,32.73
2022-12-20T12:34:32.772Z,33.00
2022-12-20T12:37:20.140Z,33.53
2022-12-20T12:39:49.909Z,32.63
2022-12-20T12:42:28.648Z,34.67
2022-12-20T12:45:00.128Z,31.00
2022-12-20T12:47:49.325Z,32.63
2022-12-20T12:50:29.342Z,36.10
2022-12-20T12:52:59.775Z,32.70
2022-12-20T12:55:36.434Z,34.30
2022-12-20T12:58:22.525Z,31.73
2022-12-20T13:01:08.202Z,35.33
2022-12-20T13:03:48.937Z,35.37
2022-12-20T13:06:31.004Z,32.60
2022-12-20T13:09:03.971Z,35.47
2022-12-20T13:11:46.261Z,34.87
2022-12-20T13:14:25.836Z,34.03
2022-12-20T13:17:12.139Z,35.20
2022-12-20T13:19:48.972Z,34.13
2022-12-20T13:22:22.520Z,36.83
2022-12-20T13:25:03.047Z,39.37
2022-12-20T13:27:40.864Z,35.47
2022-12-20T13:30:07.707Z,33.63
2022-12-20T13:32:57.025Z,34.43
2022-12-20T13:35:27.966Z,36.20
2022-12-20T13:38:12.888Z,37.47
2022-12-20T13:40:42.388Z,34.60
2022-12-20T13:43:24.276Z,35.63
2022-12-20T13:46:09.727Z,35.37
2022-12-20T13:48:49.839Z,38.63
2022-12-20T13:51:22.918Z,34.30
2022-12-20T13:54:06.246Z,33.50
2022-12-20T13:56:49.445Z,33.83
2022-12-20T13:59:32.560Z,37.70
2022-12-20T14:02:10.754Z,37.47
2022-12-20T14:04:45.013Z,34.90
2022-12-20T14:07:18.208Z,34.43
2022-12-20T14:09:46.824Z,37.00
2022-12-20T14:12:23.272Z,35.10
2022-12-20T14:14:54.977Z,38.07
2022-12-20T14:17:33.535Z,40.07
2022-12-20T14:20:12.506Z,38.37
2022-12-20T14:22:51.159Z,34.40
2022-12-20T14:25:27.882Z,36.87
2022-12-20T14:27:55.879Z,34.27
2022-12-20T14:30:34.582Z,36.20
2022-12-20T14:33:01.701Z,35.90
2022-12-20T14:35:29.007Z,34.03
2022-12-20T14:37:58.600Z,35.80
2022-12-20T14:40:25.951Z,35.97
2022-12-20T14:42:53.090Z,39.47
2022-12-20T14:45:25.815Z,40.50
2022-12-20T14:48:09.555Z,36.97
2022-12-20T14:50:38.777Z,38.40
2022-12-20T14:53:18.179Z,35.07
2022-12-20T14:55:46.602Z,39.83
2022-12-20T14:58:33.782Z,36.03
2022-12-20T15:01:15.904Z,35.87
2022-12-20T15:03:57.421Z,36.00
2022-12-20T15:06:44.260Z,37.80
2022-12-20T15:09:11.246Z,37.03
2022-12-20T15:11:39.041Z,37.63
2022-12-20T15:14:22.841Z,37.30
2022-12-20T15:16:50.252Z,39.20
2022-12-20T15:19:17.147Z,36.63
2022-12-20T15:21:45.645Z,38.90
2022-12-20T15:24:21.997Z,38.30
2022-12-20T15:26:49.473Z,43.37
2022-12-20T15:29:18.217Z,39.13
2022-12-20T15:31:46.414Z,42.00
2022-12-20T15:34:28.735Z,44.70
2022-12-20T15:36:56.798Z,41.90
2022-12-20T15:39:23.616Z,40.17
2022-12-20T15:41:50.731Z,38.57
2022-12-20T15:44:23.623Z,40.70
2022-12-20T15:46:51.382Z,39.30
2022-12-20T15:49:22.007Z,41.80
2022-12-20T15:51:50.789Z,39.90
2022-12-20T15:54:27.660Z,40.77
2022-12-20T15:56:56.247Z,39.37
2022-12-20T16:02:28.778Z,41.27
2022-12-20T16:04:56.486Z,38.77
2022-12-20T16:07:24.149Z,38.90
2022-12-20T16:09:53.157Z,38.63
2022-12-20T16:12:34.438Z,39.73
2022-12-20T16:15:01.402Z,40.53
2022-12-20T16:17:28.447Z,38.97
2022-12-20T16:19:55.634Z,37.27
2022-12-20T16:22:24.072Z,36.37
2022-12-20T16:24:54.055Z,40.63
2022-12-20T16:27:21.682Z,39.07
2022-12-20T16:29:48.629Z,36.27
2022-12-20T16:32:18.168Z,42.37
2022-12-20T16:34:47.835Z,37.93
2022-12-20T16:37:14.743Z,38.13
2022-12-20T16:39:42.486Z,37.63
2022-12-20T16:42:15.060Z,37.53
2022-12-20T16:44:47.439Z,40.60
2022-12-20T16:47:17.176Z,38.60
2022-12-20T16:49:51.760Z,36.17
2022-12-20T16:52:21.973Z,38.97
2022-12-20T16:54:49.790Z,39.43
2022-12-20T16:57:16.716Z,35.83
2022-12-20T16:59:43.596Z,39.90
2022-12-20T17:02:26.168Z,36.63
2022-12-20T17:04:53.406Z,39.53
2022-12-20T17:07:21.761Z,41.17
2022-12-20T17:09:48.787Z,41.23
2022-12-20T17:12:17.536Z,40.90
2022-12-20T17:14:44.719Z,42.70
2022-12-20T17:17:11.755Z,41.47
2022-12-20T17:19:39.400Z,36.03
2022-12-20T17:24:51.477Z,39.73
2022-12-20T17:27:19.213Z,39.70
2022-12-20T17:29:46.134Z,41.93
2022-12-20T17:32:22.170Z,38.03
2022-12-20T17:34:49.128Z,40.50
2022-12-20T17:37:17.548Z,38.50
2022-12-20T17:39:44.434Z,39.97
2022-12-20T17:42:14.817Z,40.60
2022-12-20T17:44:41.961Z,40.07
2022-12-20T17:47:08.887Z,38.07
2022-12-20T17:49:35.765Z,37.63
2022-12-20T17:52:02.594Z,39.00
2022-12-20T17:54:36.619Z,39.30
2022-12-20T17:57:06.150Z,38.63
2022-12-20T17:59:33.101Z,40.87
2022-12-20T18:02:00.175Z,43.70
2022-12-20T18:04:27.977Z,40.80
2022-12-20T18:06:54.936Z,39.73
2022-12-20T18:09:22.183Z,38.77
2022-12-20T18:11:49.571Z,39.07
2022-12-20T18:14:16.564Z,38.83
2022-12-20T18:16:43.586Z,38.67
2022-12-20T18:19:19.112Z,39.70
2022-12-20T18:21:46.165Z,40.60
2022-12-20T18:24:15.310Z,39.43
2022-12-20T18:26:43.029Z,40.13
2022-12-20T18:29:11.162Z,41.57
2022-12-20T18:31:38.802Z,40.17
2022-12-20T18:34:06.010Z,39.80
2022-12-20T18:36:35.706Z,39.03
2022-12-20T18:39:05.228Z,40.17
2022-12-20T18:41:32.967Z,38.33
2022-12-20T18:44:01.592Z,40.13
2022-12-20T18:46:29.413Z,37.50
2022-12-20T18:48:58.835Z,38.50
2022-12-20T18:51:28.527Z,38.67
2022-12-20T18:53:56.958Z,37.40
2022-12-20T18:56:32.284Z,40.33
2022-12-20T18:59:06.306Z,38.83
2022-12-20T19:01:38.629Z,35.93
2022-12-20T19:04:07.454Z,39.00
2022-12-20T19:06:35.725Z,35.93
2022-12-20T19:09:07.159Z,37.77
2022-12-20T19:11:34.465Z,38.93
2022-12-20T19:14:01.541Z,38.60
2022-12-20T19:16:34.737Z,40.87
2022-12-20T19:19:05.039Z,37.00
2022-12-20T19:21:34.142Z,36.57
2022-12-20T19:24:05.238Z,39.63
2022-12-20T19:26:32.474Z,34.90
2022-12-20T19:28:59.355Z,38.90
2022-12-20T19:31:29.300Z,39.63
2022-12-20T19:34:00.378Z,36.83
2022-12-20T19:36:41.036Z,37.43
2022-12-20T19:39:12.705Z,35.27
2022-12-20T19:41:40.204Z,36.53
2022-12-20T19:44:07.328Z,36.00
2022-12-20T19:46:34.246Z,39.60
2022-12-20T19:49:01.436Z,37.73
2022-12-20T19:51:28.954Z,38.53
2022-12-20T19:53:57.631Z,35.57
2022-12-20T19:56:27.243Z,37.23
2022-12-20T19:58:55.364Z,42.13
2022-12-20T20:01:25.938Z,37.13
2022-12-20T20:03:54.706Z,37.33
2022-12-20T20:06:23.132Z,37.67
2022-12-20T20:08:50.496Z,41.03
2022-12-20T20:11:19.081Z,36.20
2022-12-20T20:13:46.143Z,37.13
2022-12-20T20:16:19.991Z,37.90
2022-12-20T20:18:49.180Z,38.57
2022-12-20T20:21:21.068Z,37.27
2022-12-20T20:23:49.187Z,34.57
2022-12-20T20:26:19.114Z,34.67
2022-12-20T20:28:46.254Z,39.03
2022-12-20T20:31:15.665Z,35.47
2022-12-20T20:33:43.865Z,37.53
2022-12-20T20:36:14.526Z,35.53
2022-12-20T20:38:41.535Z,35.77
2022-12-20T20:41:09.299Z,37.50
2022-12-20T20:43:37.986Z,31.20
2022-12-20T20:46:07.374Z,34.30
2022-12-20T20:48:34.828Z,33.30
2022-12-20T20:51:02.094Z,35.00
2022-12-20T20:53:33.556Z,34.23
2022-12-20T20:56:05.150Z,35.50
2022-12-20T20:58:32.871Z,32.43
2022-12-20T21:01:01.704Z,33.70
2022-12-20T21:03:29.877Z,36.30
2022-12-20T21:08:43.982Z,34.57
2022-12-20T21:11:12.221Z,35.60
2022-12-20T21:13:39.272Z,34.03
2022-12-20T21:16:20.382Z,32.53
2022-12-20T21:18:55.836Z,35.87
2022-12-20T21:21:23.802Z,38.13
2022-12-20T21:23:51.391Z,36.73
2022-12-20T21:26:20.438Z,33.67
2022-12-20T21:28:47.525Z,37.33
2022-12-20T21:31:17.079Z,35.80
2022-12-20T21:33:46.075Z,37.17
2022-12-20T21:36:16.144Z,37.07
2022-12-20T21:38:52.020Z,35.67
2022-12-20T21:41:23.227Z,34.27
2022-12-20T21:43:51.455Z,35.93
2022-12-20T21:46:18.466Z,37.00
2022-12-20T21:48:45.329Z,39.77
2022-12-20T21:51:14.530Z,37.60
2022-12-20T21:53:50.136Z,35.43
2022-12-20T21:56:18.296Z,37.30
2022-12-20T21:58:45.985Z,35.73
2022-12-20T22:01:16.101Z,36.73
2022-12-20T22:03:44.443Z,37.43
2022-12-20T22:06:11.912Z,35.07
2022-12-20T22:08:38.767Z,34.90
2022-12-20T22:11:08.219Z,36.37
2022-12-20T22:13:41.134Z,35.73
2022-12-20T22:16:13.737Z,35.97
2022-12-20T22:18:41.362Z,35.83
2022-12-20T22:21:11.574Z,39.67
2022-12-20T22:23:39.302Z,36.30
2022-12-20T22:26:22.519Z,39.67
2022-12-20T22:29:11.098Z,36.37
2022-12-20T22:31:38.127Z,37.87
2022-12-20T22:34:05.129Z,35.50
2022-12-20T22:36:35.065Z,40.03
2022-12-20T22:39:02.065Z,39.57
2022-12-20T22:41:32.400Z,40.53
2022-12-20T22:43:59.899Z,36.17
2022-12-20T22:49:17.587Z,36.00
2022-12-20T22:51:51.279Z,37.90
2022-12-20T22:54:26.155Z,37.27
2022-12-20T22:56:53.008Z,37.33
2022-12-20T22:59:19.961Z,34.37
2022-12-20T23:01:46.873Z,37.03
2022-12-20T23:04:15.115Z,35.87
2022-12-20T23:06:41.907Z,36.47
2022-12-20T23:09:09.013Z,36.40
2022-12-20T23:11:54.891Z,36.90
2022-12-20T23:14:41.153Z,37.90
2022-12-20T23:17:09.664Z,37.40
2022-12-20T23:19:55.103Z,37.40
2022-12-20T23:22:41.656Z,36.67
2022-12-20T23:25:11.913Z,36.60
2022-12-20T23:27:39.767Z,39.27
2022-12-20T23:30:08.542Z,35.47
2022-12-20T23:32:35.807Z,34.33
2022-12-20T23:35:08.331Z,37.07
2022-12-20T23:37:39.253Z,37.57
2022-12-20T23:40:09.072Z,40.53
2022-12-20T23:42:36.216Z,35.43
2022-12-20T23:45:03.301Z,34.33
2022-12-20T23:47:31.669Z,37.87
2022-12-20T23:49:58.449Z,39.97
2022-12-20T23:52:25.262Z,35.50
2022-12-20T23:54:53.181Z,33.33
2022-12-20T23:57:20.974Z,35.13
2022-12-20T23:59:47.757Z,35.80
